sensor_id;sensor_type;location;lat;lon;timestamp;pressure;altitude;pressure_sealevel;temperature;humidity
80654;BME280;70020;45.524;10.240;2024-01-11T00:01:58;101328.78;;;7.24;56.03
80654;BME280;70020;45.524;10.240;2024-01-11T00:04:23;101333.22;;;7.21;55.64
80654;BME280;70020;45.524;10.240;2024-01-11T00:06:52;101328.09;;;7.19;55.57
80654;BME280;70020;45.524;10.240;2024-01-11T00:09:18;101332.31;;;7.22;56.05
80654;BME280;70020;45.524;10.240;2024-01-11T00:11:44;101329.47;;;7.29;55.14
80654;BME280;70020;45.524;10.240;2024-01-11T00:14:10;101328.47;;;7.33;55.90
80654;BME280;70020;45.524;10.240;2024-01-11T00:16:36;101328.28;;;7.15;56.06
80654;BME280;70020;45.524;10.240;2024-01-11T00:19:02;101330.03;;;7.14;55.96
80654;BME280;70020;45.524;10.240;2024-01-11T00:21:28;101321.31;;;7.18;55.84
80654;BME280;70020;45.524;10.240;2024-01-11T00:23:54;101320.13;;;7.27;55.80
80654;BME280;70020;45.524;10.240;2024-01-11T00:26:20;101325.84;;;7.12;56.36
80654;BME280;70020;45.524;10.240;2024-01-11T00:28:46;101313.69;;;7.15;56.38
80654;BME280;70020;45.524;10.240;2024-01-11T00:31:11;101309.44;;;7.14;56.26
80654;BME280;70020;45.524;10.240;2024-01-11T00:33:37;101312.56;;;7.22;56.20
80654;BME280;70020;45.524;10.240;2024-01-11T00:36:03;101313.91;;;7.09;55.91
80654;BME280;70020;45.524;10.240;2024-01-11T00:38:30;101306.97;;;7.11;56.02
80654;BME280;70020;45.524;10.240;2024-01-11T00:40:56;101311.78;;;7.20;56.27
80654;BME280;70020;45.524;10.240;2024-01-11T00:43:22;101309.81;;;7.27;55.96
80654;BME280;70020;45.524;10.240;2024-01-11T00:45:48;101313.13;;;7.30;55.76
80654;BME280;70020;45.524;10.240;2024-01-11T00:48:17;101310.09;;;7.19;56.07
80654;BME280;70020;45.524;10.240;2024-01-11T00:50:43;101315.38;;;7.16;56.38
80654;BME280;70020;45.524;10.240;2024-01-11T00:53:09;101309.66;;;7.31;56.09
80654;BME280;70020;45.524;10.240;2024-01-11T00:55:36;101310.28;;;7.38;55.05
80654;BME280;70020;45.524;10.240;2024-01-11T00:58:05;101312.84;;;7.15;55.66
80654;BME280;70020;45.524;10.240;2024-01-11T01:00:31;101306.19;;;7.09;55.88
80654;BME280;70020;45.524;10.240;2024-01-11T01:02:57;101305.63;;;7.24;55.48
80654;BME280;70020;45.524;10.240;2024-01-11T01:05:23;101311.34;;;7.32;55.29
80654;BME280;70020;45.524;10.240;2024-01-11T01:07:49;101312.88;;;7.38;55.20
80654;BME280;70020;45.524;10.240;2024-01-11T01:10:15;101306.44;;;7.48;54.74
80654;BME280;70020;45.524;10.240;2024-01-11T01:12:41;101309.66;;;7.31;54.53
80654;BME280;70020;45.524;10.240;2024-01-11T01:15:07;101308.44;;;7.18;54.82
80654;BME280;70020;45.524;10.240;2024-01-11T01:17:33;101306.09;;;7.35;55.30
80654;BME280;70020;45.524;10.240;2024-01-11T01:20:03;101307.53;;;7.42;54.82
80654;BME280;70020;45.524;10.240;2024-01-11T01:22:29;101303.16;;;7.44;54.95
80654;BME280;70020;45.524;10.240;2024-01-11T01:24:55;101302.94;;;7.27;54.49
80654;BME280;70020;45.524;10.240;2024-01-11T01:27:21;101303.38;;;7.15;54.11
80654;BME280;70020;45.524;10.240;2024-01-11T01:29:48;101297.69;;;7.07;54.73
80654;BME280;70020;45.524;10.240;2024-01-11T01:32:15;101301.38;;;7.23;54.42
80654;BME280;70020;45.524;10.240;2024-01-11T01:34:40;101302.88;;;7.29;54.09
80654;BME280;70020;45.524;10.240;2024-01-11T01:37:06;101295.84;;;7.34;54.77
80654;BME280;70020;45.524;10.240;2024-01-11T01:39:32;101295.84;;;7.34;55.16
80654;BME280;70020;45.524;10.240;2024-01-11T01:41:58;101292.44;;;7.33;54.65
80654;BME280;70020;45.524;10.240;2024-01-11T01:44:24;101291.09;;;7.23;54.96
80654;BME280;70020;45.524;10.240;2024-01-11T01:46:51;101284.50;;;7.16;55.09
80654;BME280;70020;45.524;10.240;2024-01-11T01:49:17;101280.22;;;7.15;55.49
80654;BME280;70020;45.524;10.240;2024-01-11T01:51:47;101280.63;;;7.05;55.58
80654;BME280;70020;45.524;10.240;2024-01-11T01:54:14;101278.88;;;6.82;56.42
80654;BME280;70020;45.524;10.240;2024-01-11T01:56:40;101283.81;;;6.88;55.95
80654;BME280;70020;45.524;10.240;2024-01-11T01:59:06;101285.25;;;6.72;56.73
80654;BME280;70020;45.524;10.240;2024-01-11T02:01:32;101286.06;;;6.72;55.35
80654;BME280;70020;45.524;10.240;2024-01-11T02:03:58;101279.78;;;6.81;55.66
80654;BME280;70020;45.524;10.240;2024-01-11T02:06:25;101276.97;;;6.87;55.51
80654;BME280;70020;45.524;10.240;2024-01-11T02:08:54;101287.50;;;7.04;56.10
80654;BME280;70020;45.524;10.240;2024-01-11T02:11:21;101277.91;;;7.09;55.72
80654;BME280;70020;45.524;10.240;2024-01-11T02:13:50;101274.53;;;7.07;55.52
80654;BME280;70020;45.524;10.240;2024-01-11T02:16:16;101280.22;;;7.15;56.06
80654;BME280;70020;45.524;10.240;2024-01-11T02:18:41;101276.78;;;6.93;56.15
80654;BME280;70020;45.524;10.240;2024-01-11T02:21:09;101273.84;;;6.79;56.17
80654;BME280;70020;45.524;10.240;2024-01-11T02:23:44;101276.84;;;6.67;56.66
80654;BME280;70020;45.524;10.240;2024-01-11T02:26:15;101277.63;;;6.69;57.13
80654;BME280;70020;45.524;10.240;2024-01-11T02:28:44;101275.78;;;6.72;56.98
80654;BME280;70020;45.524;10.240;2024-01-11T02:31:11;101273.16;;;6.74;56.80
80654;BME280;70020;45.524;10.240;2024-01-11T02:33:38;101270.25;;;6.83;56.84
80654;BME280;70020;45.524;10.240;2024-01-11T02:36:05;101267.53;;;6.88;57.00
80654;BME280;70020;45.524;10.240;2024-01-11T02:38:32;101265.13;;;6.83;57.05
80654;BME280;70020;45.524;10.240;2024-01-11T02:40:59;101264.38;;;6.79;56.99
80654;BME280;70020;45.524;10.240;2024-01-11T02:43:25;101261.19;;;6.73;57.50
80654;BME280;70020;45.524;10.240;2024-01-11T02:45:54;101257.44;;;6.81;56.74
80654;BME280;70020;45.524;10.240;2024-01-11T02:48:20;101260.16;;;6.78;56.33
80654;BME280;70020;45.524;10.240;2024-01-11T02:50:48;101257.56;;;6.78;56.03
80654;BME280;70020;45.524;10.240;2024-01-11T02:53:14;101249.63;;;6.84;56.99
80654;BME280;70020;45.524;10.240;2024-01-11T02:55:39;101248.00;;;6.82;56.46
80654;BME280;70020;45.524;10.240;2024-01-11T02:58:06;101243.34;;;6.68;56.40
80654;BME280;70020;45.524;10.240;2024-01-11T03:00:31;101238.03;;;6.73;57.04
80654;BME280;70020;45.524;10.240;2024-01-11T03:02:58;101237.69;;;6.83;57.10
80654;BME280;70020;45.524;10.240;2024-01-11T03:05:23;101242.84;;;6.82;56.67
80654;BME280;70020;45.524;10.240;2024-01-11T03:07:50;101238.66;;;6.79;56.69
80654;BME280;70020;45.524;10.240;2024-01-11T03:10:15;101224.75;;;6.85;56.81
80654;BME280;70020;45.524;10.240;2024-01-11T03:12:41;101222.00;;;6.90;56.81
80654;BME280;70020;45.524;10.240;2024-01-11T03:15:08;101216.75;;;6.93;57.21
80654;BME280;70020;45.524;10.240;2024-01-11T03:17:35;101215.41;;;6.82;56.54
80654;BME280;70020;45.524;10.240;2024-01-11T03:20:01;101220.16;;;6.70;57.37
80654;BME280;70020;45.524;10.240;2024-01-11T03:22:29;101213.88;;;6.54;57.94
80654;BME280;70020;45.524;10.240;2024-01-11T03:24:56;101217.19;;;6.57;58.35
80654;BME280;70020;45.524;10.240;2024-01-11T03:27:22;101211.44;;;6.74;57.73
80654;BME280;70020;45.524;10.240;2024-01-11T03:29:47;101209.66;;;6.76;57.68
80654;BME280;70020;45.524;10.240;2024-01-11T03:32:14;101212.00;;;6.82;57.75
80654;BME280;70020;45.524;10.240;2024-01-11T03:34:43;101203.41;;;6.83;57.33
80654;BME280;70020;45.524;10.240;2024-01-11T03:37:09;101204.72;;;6.70;57.53
80654;BME280;70020;45.524;10.240;2024-01-11T03:39:35;101207.97;;;6.75;57.78
80654;BME280;70020;45.524;10.240;2024-01-11T03:42:01;101193.50;;;6.72;57.53
80654;BME280;70020;45.524;10.240;2024-01-11T03:44:28;101195.84;;;6.55;58.25
80654;BME280;70020;45.524;10.240;2024-01-11T03:46:55;101191.66;;;6.53;58.65
80654;BME280;70020;45.524;10.240;2024-01-11T03:49:21;101191.41;;;6.36;58.34
80654;BME280;70020;45.524;10.240;2024-01-11T03:51:47;101189.50;;;6.41;58.62
80654;BME280;70020;45.524;10.240;2024-01-11T03:54:12;101189.28;;;6.47;58.43
80654;BME280;70020;45.524;10.240;2024-01-11T03:56:39;101195.53;;;6.40;59.07
80654;BME280;70020;45.524;10.240;2024-01-11T03:59:05;101186.44;;;6.54;58.67
80654;BME280;70020;45.524;10.240;2024-01-11T04:01:33;101187.91;;;6.61;58.55
80654;BME280;70020;45.524;10.240;2024-01-11T04:04:04;101187.13;;;6.59;58.31
80654;BME280;70020;45.524;10.240;2024-01-11T04:06:29;101186.94;;;6.64;58.58
80654;BME280;70020;45.524;10.240;2024-01-11T04:08:55;101184.47;;;6.61;58.50
80654;BME280;70020;45.524;10.240;2024-01-11T04:11:21;101184.44;;;6.62;58.12
80654;BME280;70020;45.524;10.240;2024-01-11T04:13:47;101184.56;;;6.59;58.92
80654;BME280;70020;45.524;10.240;2024-01-11T04:16:13;101176.66;;;6.64;58.25
80654;BME280;70020;45.524;10.240;2024-01-11T04:18:39;101187.56;;;6.70;58.13
80654;BME280;70020;45.524;10.240;2024-01-11T04:21:05;101186.09;;;6.63;58.09
80654;BME280;70020;45.524;10.240;2024-01-11T04:23:30;101184.03;;;6.73;58.21
80654;BME280;70020;45.524;10.240;2024-01-11T04:25:56;101183.97;;;6.74;57.48
80654;BME280;70020;45.524;10.240;2024-01-11T04:28:23;101177.88;;;6.77;57.19
80654;BME280;70020;45.524;10.240;2024-01-11T04:30:49;101178.47;;;6.62;57.75
80654;BME280;70020;45.524;10.240;2024-01-11T04:33:15;101185.41;;;6.60;57.82
80654;BME280;70020;45.524;10.240;2024-01-11T04:35:42;101185.06;;;6.69;57.49
80654;BME280;70020;45.524;10.240;2024-01-11T04:38:08;101183.94;;;6.53;57.46
80654;BME280;70020;45.524;10.240;2024-01-11T04:40:34;101179.56;;;6.55;57.36
80654;BME280;70020;45.524;10.240;2024-01-11T04:43:00;101178.47;;;6.37;57.62
80654;BME280;70020;45.524;10.240;2024-01-11T04:45:26;101177.09;;;6.52;57.46
80654;BME280;70020;45.524;10.240;2024-01-11T04:47:52;101182.69;;;6.40;58.09
80654;BME280;70020;45.524;10.240;2024-01-11T04:50:18;101178.09;;;6.25;57.65
80654;BME280;70020;45.524;10.240;2024-01-11T04:52:44;101183.22;;;6.25;58.06
80654;BME280;70020;45.524;10.240;2024-01-11T04:55:10;101181.44;;;6.27;57.79
80654;BME280;70020;45.524;10.240;2024-01-11T04:57:36;101180.69;;;6.23;57.90
80654;BME280;70020;45.524;10.240;2024-01-11T05:00:03;101182.09;;;6.07;58.00
80654;BME280;70020;45.524;10.240;2024-01-11T05:02:30;101173.09;;;5.95;58.33
80654;BME280;70020;45.524;10.240;2024-01-11T05:04:56;101176.91;;;5.82;58.93
80654;BME280;70020;45.524;10.240;2024-01-11T05:07:23;101175.13;;;5.86;58.72
80654;BME280;70020;45.524;10.240;2024-01-11T05:09:49;101173.34;;;5.88;58.98
80654;BME280;70020;45.524;10.240;2024-01-11T05:12:15;101166.16;;;5.97;58.46
80654;BME280;70020;45.524;10.240;2024-01-11T05:14:41;101170.34;;;6.00;58.58
80654;BME280;70020;45.524;10.240;2024-01-11T05:17:07;101181.56;;;5.97;58.61
80654;BME280;70020;45.524;10.240;2024-01-11T05:19:33;101175.44;;;6.01;58.85
80654;BME280;70020;45.524;10.240;2024-01-11T05:21:58;101174.34;;;6.08;58.46
80654;BME280;70020;45.524;10.240;2024-01-11T05:24:24;101174.50;;;6.04;59.15
80654;BME280;70020;45.524;10.240;2024-01-11T05:26:50;101177.97;;;6.03;58.94
80654;BME280;70020;45.524;10.240;2024-01-11T05:29:16;101174.50;;;6.04;58.74
80654;BME280;70020;45.524;10.240;2024-01-11T05:31:42;101168.63;;;6.00;59.27
80654;BME280;70020;45.524;10.240;2024-01-11T05:34:07;101173.03;;;5.97;58.65
80654;BME280;70020;45.524;10.240;2024-01-11T05:36:37;101175.41;;;6.03;58.51
80654;BME280;70020;45.524;10.240;2024-01-11T05:39:03;101172.94;;;6.00;58.34
80654;BME280;70020;45.524;10.240;2024-01-11T05:41:29;101171.91;;;5.78;59.04
80654;BME280;70020;45.524;10.240;2024-01-11T05:43:55;101178.53;;;5.86;58.42
80654;BME280;70020;45.524;10.240;2024-01-11T05:46:20;101174.63;;;5.73;58.58
80654;BME280;70020;45.524;10.240;2024-01-11T05:48:46;101174.31;;;5.84;58.84
80654;BME280;70020;45.524;10.240;2024-01-11T05:51:12;101176.84;;;5.85;58.78
80654;BME280;70020;45.524;10.240;2024-01-11T05:53:38;101173.25;;;5.91;59.32
80654;BME280;70020;45.524;10.240;2024-01-11T05:56:08;101175.72;;;5.94;58.73
80654;BME280;70020;45.524;10.240;2024-01-11T05:58:33;101169.03;;;5.88;59.40
80654;BME280;70020;45.524;10.240;2024-01-11T06:00:59;101180.00;;;5.93;59.08
80654;BME280;70020;45.524;10.240;2024-01-11T06:03:25;101179.09;;;5.94;59.36
80654;BME280;70020;45.524;10.240;2024-01-11T06:05:53;101181.91;;;5.87;59.15
80654;BME280;70020;45.524;10.240;2024-01-11T06:08:19;101182.41;;;5.72;59.21
80654;BME280;70020;45.524;10.240;2024-01-11T06:10:45;101187.72;;;5.66;59.71
80654;BME280;70020;45.524;10.240;2024-01-11T06:13:11;101183.81;;;5.54;59.60
80654;BME280;70020;45.524;10.240;2024-01-11T06:15:41;101185.59;;;5.52;59.73
80654;BME280;70020;45.524;10.240;2024-01-11T06:18:07;101182.72;;;5.61;59.94
80654;BME280;70020;45.524;10.240;2024-01-11T06:20:34;101183.41;;;5.66;59.83
80654;BME280;70020;45.524;10.240;2024-01-11T06:23:00;101183.94;;;5.77;59.68
80654;BME280;70020;45.524;10.240;2024-01-11T06:25:26;101184.81;;;5.76;59.34
80654;BME280;70020;45.524;10.240;2024-01-11T06:27:52;101178.91;;;5.74;59.56
80654;BME280;70020;45.524;10.240;2024-01-11T06:30:18;101177.91;;;5.78;59.41
80654;BME280;70020;45.524;10.240;2024-01-11T06:32:44;101174.31;;;5.82;58.51
80654;BME280;70020;45.524;10.240;2024-01-11T06:35:10;101176.84;;;5.85;59.00
80654;BME280;70020;45.524;10.240;2024-01-11T06:37:36;101176.44;;;5.97;58.30
80654;BME280;70020;45.524;10.240;2024-01-11T06:40:02;101168.31;;;6.09;58.47
80654;BME280;70020;45.524;10.240;2024-01-11T06:42:29;101170.28;;;6.01;59.00
80654;BME280;70020;45.524;10.240;2024-01-11T06:44:55;101169.56;;;5.98;58.67
80654;BME280;70020;45.524;10.240;2024-01-11T06:47:21;101170.03;;;6.09;58.18
80654;BME280;70020;45.524;10.240;2024-01-11T06:49:47;101173.25;;;6.15;58.51
80654;BME280;70020;45.524;10.240;2024-01-11T06:52:13;101168.94;;;6.16;59.12
80654;BME280;70020;45.524;10.240;2024-01-11T06:54:39;101172.94;;;6.25;58.40
80654;BME280;70020;45.524;10.240;2024-01-11T06:57:05;101167.69;;;6.28;58.50
80654;BME280;70020;45.524;10.240;2024-01-11T06:59:31;101165.38;;;6.20;58.94
80654;BME280;70020;45.524;10.240;2024-01-11T07:01:57;101170.25;;;6.03;58.77
80654;BME280;70020;45.524;10.240;2024-01-11T07:04:23;101168.31;;;5.83;59.54
80654;BME280;70020;45.524;10.240;2024-01-11T07:06:49;101160.19;;;5.97;58.69
80654;BME280;70020;45.524;10.240;2024-01-11T07:09:16;101160.56;;;6.11;59.42
80654;BME280;70020;45.524;10.240;2024-01-11T07:11:42;101155.94;;;5.96;58.58
80654;BME280;70020;45.524;10.240;2024-01-11T07:14:08;101163.28;;;6.06;58.96
80654;BME280;70020;45.524;10.240;2024-01-11T07:16:37;101165.94;;;6.03;57.93
80654;BME280;70020;45.524;10.240;2024-01-11T07:19:03;101162.56;;;6.03;58.67
80654;BME280;70020;45.524;10.240;2024-01-11T07:21:29;101153.22;;;6.00;59.03
80654;BME280;70020;45.524;10.240;2024-01-11T07:23:59;101160.38;;;6.15;58.94
80654;BME280;70020;45.524;10.240;2024-01-11T07:26:25;101162.41;;;6.07;59.10
80654;BME280;70020;45.524;10.240;2024-01-11T07:28:51;101158.56;;;6.19;59.19
80654;BME280;70020;45.524;10.240;2024-01-11T07:31:17;101166.13;;;6.24;58.54
80654;BME280;70020;45.524;10.240;2024-01-11T07:33:43;101160.59;;;6.34;58.56
80654;BME280;70020;45.524;10.240;2024-01-11T07:36:10;101163.91;;;6.38;59.15
80654;BME280;70020;45.524;10.240;2024-01-11T07:38:36;101161.09;;;6.44;59.21
80654;BME280;70020;45.524;10.240;2024-01-11T07:41:02;101160.97;;;6.48;58.97
80654;BME280;70020;45.524;10.240;2024-01-11T07:43:28;101154.47;;;6.61;59.11
80654;BME280;70020;45.524;10.240;2024-01-11T07:45:54;101147.59;;;6.62;58.45
80654;BME280;70020;45.524;10.240;2024-01-11T07:48:22;101149.56;;;6.55;58.51
80654;BME280;70020;45.524;10.240;2024-01-11T07:50:48;101142.63;;;6.57;58.85
80654;BME280;70020;45.524;10.240;2024-01-11T07:53:14;101148.78;;;6.76;58.55
80654;BME280;70020;45.524;10.240;2024-01-11T07:55:41;101149.78;;;6.72;59.15
80654;BME280;70020;45.524;10.240;2024-01-11T07:58:07;101150.94;;;6.87;58.42
80654;BME280;70020;45.524;10.240;2024-01-11T08:00:33;101146.06;;;6.79;58.39
80654;BME280;70020;45.524;10.240;2024-01-11T08:02:59;101140.44;;;6.93;58.26
80654;BME280;70020;45.524;10.240;2024-01-11T08:05:25;101143.72;;;6.97;58.38
80654;BME280;70020;45.524;10.240;2024-01-11T08:07:51;101146.00;;;7.04;58.87
80654;BME280;70020;45.524;10.240;2024-01-11T08:10:17;101155.63;;;6.99;58.33
80654;BME280;70020;45.524;10.240;2024-01-11T08:12:43;101141.06;;;6.98;57.76
80654;BME280;70020;45.524;10.240;2024-01-11T08:15:09;101150.78;;;7.13;57.38
80654;BME280;70020;45.524;10.240;2024-01-11T08:17:47;101150.53;;;7.19;57.20
80654;BME280;70020;45.524;10.240;2024-01-11T08:20:13;101150.22;;;7.28;57.24
80654;BME280;70020;45.524;10.240;2024-01-11T08:22:40;101162.34;;;7.46;57.32
80654;BME280;70020;45.524;10.240;2024-01-11T08:25:06;101150.31;;;7.47;57.24
80654;BME280;70020;45.524;10.240;2024-01-11T08:27:33;101158.03;;;7.69;56.49
80654;BME280;70020;45.524;10.240;2024-01-11T08:29:58;101156.25;;;7.69;56.59
80654;BME280;70020;45.524;10.240;2024-01-11T08:32:25;101156.41;;;7.66;56.68
80654;BME280;70020;45.524;10.240;2024-01-11T08:34:51;101158.59;;;7.75;56.77
80654;BME280;70020;45.524;10.240;2024-01-11T08:37:17;101161.94;;;7.77;56.39
80654;BME280;70020;45.524;10.240;2024-01-11T08:39:43;101166.03;;;7.83;55.97
80654;BME280;70020;45.524;10.240;2024-01-11T08:42:11;101158.28;;;7.83;56.49
80654;BME280;70020;45.524;10.240;2024-01-11T08:44:43;101158.78;;;7.91;56.12
80654;BME280;70020;45.524;10.240;2024-01-11T08:47:09;101152.75;;;7.92;56.10
80654;BME280;70020;45.524;10.240;2024-01-11T08:49:39;101157.44;;;8.02;55.74
80654;BME280;70020;45.524;10.240;2024-01-11T08:52:05;101163.91;;;8.12;55.81
80654;BME280;70020;45.524;10.240;2024-01-11T08:54:34;101158.81;;;8.11;55.51
80654;BME280;70020;45.524;10.240;2024-01-11T08:57:00;101161.50;;;8.08;55.67
80654;BME280;70020;45.524;10.240;2024-01-11T08:59:26;101158.50;;;8.18;55.63
80654;BME280;70020;45.524;10.240;2024-01-11T09:01:52;101166.78;;;8.25;55.53
80654;BME280;70020;45.524;10.240;2024-01-11T09:04:21;101168.53;;;8.24;54.75
80654;BME280;70020;45.524;10.240;2024-01-11T09:06:47;101158.28;;;8.23;54.69
80654;BME280;70020;45.524;10.240;2024-01-11T09:09:12;101151.94;;;8.32;55.22
80654;BME280;70020;45.524;10.240;2024-01-11T09:11:39;101147.09;;;8.44;55.27
80654;BME280;70020;45.524;10.240;2024-01-11T09:14:09;101155.50;;;8.48;54.54
80654;BME280;70020;45.524;10.240;2024-01-11T09:16:38;101157.06;;;8.52;54.38
80654;BME280;70020;45.524;10.240;2024-01-11T09:19:04;101153.09;;;8.63;54.13
80654;BME280;70020;45.524;10.240;2024-01-11T09:21:30;101148.91;;;8.61;53.99
80654;BME280;70020;45.524;10.240;2024-01-11T09:23:56;101157.69;;;8.57;54.41
80654;BME280;70020;45.524;10.240;2024-01-11T09:26:22;101154.41;;;8.53;54.58
80654;BME280;70020;45.524;10.240;2024-01-11T09:28:48;101148.28;;;8.56;54.28
80654;BME280;70020;45.524;10.240;2024-01-11T09:31:14;101144.56;;;8.61;53.86
80654;BME280;70020;45.524;10.240;2024-01-11T09:33:44;101138.31;;;8.67;53.97
80654;BME280;70020;45.524;10.240;2024-01-11T09:36:11;101139.06;;;8.69;53.29
80654;BME280;70020;45.524;10.240;2024-01-11T09:38:37;101142.91;;;8.79;52.78
80654;BME280;70020;45.524;10.240;2024-01-11T09:41:12;101138.03;;;8.92;53.41
80654;BME280;70020;45.524;10.240;2024-01-11T09:43:40;101131.34;;;9.06;52.97
80654;BME280;70020;45.524;10.240;2024-01-11T09:46:06;101137.19;;;9.10;52.51
80654;BME280;70020;45.524;10.240;2024-01-11T09:48:34;101135.31;;;9.13;52.63
80654;BME280;70020;45.524;10.240;2024-01-11T09:51:04;101129.97;;;9.16;52.57
80654;BME280;70020;45.524;10.240;2024-01-11T09:53:33;101132.50;;;9.18;52.04
80654;BME280;70020;45.524;10.240;2024-01-11T09:56:00;101133.91;;;9.25;52.04
80654;BME280;70020;45.524;10.240;2024-01-11T09:58:27;101132.91;;;9.27;52.36
80654;BME280;70020;45.524;10.240;2024-01-11T10:00:56;101128.28;;;9.34;52.23
80654;BME280;70020;45.524;10.240;2024-01-11T10:03:25;101125.34;;;9.41;51.79
80654;BME280;70020;45.524;10.240;2024-01-11T10:05:54;101116.91;;;9.55;52.07
80654;BME280;70020;45.524;10.240;2024-01-11T10:08:22;101110.63;;;9.61;52.11
80654;BME280;70020;45.524;10.240;2024-01-11T10:10:49;101109.06;;;9.56;53.04
80654;BME280;70020;45.524;10.240;2024-01-11T10:13:15;101095.53;;;9.51;54.01
80654;BME280;70020;45.524;10.240;2024-01-11T10:15:42;101091.84;;;9.57;53.04
80654;BME280;70020;45.524;10.240;2024-01-11T10:18:08;101089.72;;;9.65;52.76
80654;BME280;70020;45.524;10.240;2024-01-11T10:20:33;101084.16;;;9.73;52.85
80654;BME280;70020;45.524;10.240;2024-01-11T10:22:59;101081.97;;;9.65;52.83
80654;BME280;70020;45.524;10.240;2024-01-11T10:25:26;101073.13;;;9.52;52.38
80654;BME280;70020;45.524;10.240;2024-01-11T10:27:52;101070.41;;;9.72;52.72
80654;BME280;70020;45.524;10.240;2024-01-11T10:30:18;101077.38;;;9.70;51.43
80654;BME280;70020;45.524;10.240;2024-01-11T10:32:46;101065.31;;;9.71;51.08
80654;BME280;70020;45.524;10.240;2024-01-11T10:35:12;101069.00;;;9.82;51.85
80654;BME280;70020;45.524;10.240;2024-01-11T10:37:39;101067.03;;;9.87;52.33
80654;BME280;70020;45.524;10.240;2024-01-11T10:40:05;101060.75;;;9.76;53.25
80654;BME280;70020;45.524;10.240;2024-01-11T10:42:35;101061.88;;;9.70;53.02
80654;BME280;70020;45.524;10.240;2024-01-11T10:45:03;101054.78;;;9.58;53.09
80654;BME280;70020;45.524;10.240;2024-01-11T10:47:31;101054.06;;;9.54;53.17
80654;BME280;70020;45.524;10.240;2024-01-11T10:49:57;101052.75;;;9.63;53.90
80654;BME280;70020;45.524;10.240;2024-01-11T10:52:28;101048.66;;;9.76;53.15
80654;BME280;70020;45.524;10.240;2024-01-11T10:55:00;101040.53;;;9.84;53.19
80654;BME280;70020;45.524;10.240;2024-01-11T10:57:27;101045.00;;;9.63;52.60
80654;BME280;70020;45.524;10.240;2024-01-11T10:59:54;101041.91;;;9.74;53.57
80654;BME280;70020;45.524;10.240;2024-01-11T11:02:20;101031.59;;;9.89;53.46
80654;BME280;70020;45.524;10.240;2024-01-11T11:04:48;101025.88;;;10.00;52.63
80654;BME280;70020;45.524;10.240;2024-01-11T11:07:18;101024.69;;;9.90;53.41
80654;BME280;70020;45.524;10.240;2024-01-11T11:09:44;101016.72;;;9.77;52.34
80654;BME280;70020;45.524;10.240;2024-01-11T11:12:12;101008.28;;;9.91;52.93
80654;BME280;70020;45.524;10.240;2024-01-11T11:14:40;101011.97;;;10.02;52.90
80654;BME280;70020;45.524;10.240;2024-01-11T11:17:06;101010.53;;;9.97;53.44
80654;BME280;70020;45.524;10.240;2024-01-11T11:19:32;101013.44;;;9.91;53.17
80654;BME280;70020;45.524;10.240;2024-01-11T11:21:58;101007.28;;;9.93;53.69
80654;BME280;70020;45.524;10.240;2024-01-11T11:24:25;101008.69;;;10.16;54.86
80654;BME280;70020;45.524;10.240;2024-01-11T11:26:52;100998.50;;;10.13;53.27
80654;BME280;70020;45.524;10.240;2024-01-11T11:29:19;100988.94;;;10.31;52.95
80654;BME280;70020;45.524;10.240;2024-01-11T11:31:45;100997.34;;;10.34;52.96
80654;BME280;70020;45.524;10.240;2024-01-11T11:34:20;100984.59;;;10.31;52.03
80654;BME280;70020;45.524;10.240;2024-01-11T11:36:46;100986.34;;;10.31;52.91
80654;BME280;70020;45.524;10.240;2024-01-11T11:39:13;100980.66;;;10.40;52.38
80654;BME280;70020;45.524;10.240;2024-01-11T11:41:39;100968.75;;;10.53;52.52
80654;BME280;70020;45.524;10.240;2024-01-11T11:44:05;100965.13;;;10.55;50.44
80654;BME280;70020;45.524;10.240;2024-01-11T11:46:32;100971.50;;;10.50;52.25
80654;BME280;70020;45.524;10.240;2024-01-11T11:48:59;100963.53;;;10.68;51.87
80654;BME280;70020;45.524;10.240;2024-01-11T11:51:25;100960.69;;;10.73;51.72
80654;BME280;70020;45.524;10.240;2024-01-11T11:53:52;100953.75;;;10.58;51.94
80654;BME280;70020;45.524;10.240;2024-01-11T11:56:18;100945.84;;;10.61;51.78
80654;BME280;70020;45.524;10.240;2024-01-11T11:58:45;100946.75;;;10.75;51.64
80654;BME280;70020;45.524;10.240;2024-01-11T12:01:12;100941.09;;;10.69;52.54
80654;BME280;70020;45.524;10.240;2024-01-11T12:03:41;100936.91;;;10.66;52.26
80654;BME280;70020;45.524;10.240;2024-01-11T12:06:09;100940.19;;;10.84;51.83
80654;BME280;70020;45.524;10.240;2024-01-11T12:08:36;100938.75;;;10.94;51.08
80654;BME280;70020;45.524;10.240;2024-01-11T12:11:03;100940.03;;;10.87;51.65
80654;BME280;70020;45.524;10.240;2024-01-11T12:13:29;100928.50;;;10.92;51.83
80654;BME280;70020;45.524;10.240;2024-01-11T12:15:56;100923.72;;;11.15;50.88
80654;BME280;70020;45.524;10.240;2024-01-11T12:18:22;100918.47;;;10.86;51.57
80654;BME280;70020;45.524;10.240;2024-01-11T12:20:48;100918.03;;;10.94;51.76
80654;BME280;70020;45.524;10.240;2024-01-11T12:23:14;100915.75;;;11.04;52.26
80654;BME280;70020;45.524;10.240;2024-01-11T12:25:40;100914.81;;;10.90;52.48
80654;BME280;70020;45.524;10.240;2024-01-11T12:28:06;100916.88;;;11.14;52.44
80654;BME280;70020;45.524;10.240;2024-01-11T12:30:32;100905.97;;;11.23;51.65
80654;BME280;70020;45.524;10.240;2024-01-11T12:32:59;100908.97;;;11.31;51.37
80654;BME280;70020;45.524;10.240;2024-01-11T12:35:26;100903.66;;;11.18;51.52
80654;BME280;70020;45.524;10.240;2024-01-11T12:37:59;100899.13;;;11.22;50.39
80654;BME280;70020;45.524;10.240;2024-01-11T12:40:32;100886.09;;;11.23;51.21
80654;BME280;70020;45.524;10.240;2024-01-11T12:42:59;100891.72;;;11.02;51.50
80654;BME280;70020;45.524;10.240;2024-01-11T12:45:25;100885.41;;;11.06;51.16